createdAt,value
2018-05-26T00:00:59.867Z,52.73
2018-05-26T00:03:33.977Z,53.20
2018-05-26T00:06:08.770Z,51.77
2018-05-26T00:08:42.445Z,52.83
2018-05-26T00:11:16.424Z,50.50
2018-05-26T00:13:50.254Z,52.83
2018-05-26T00:16:24.093Z,50.57
2018-05-26T00:18:58.774Z,48.63
2018-05-26T00:21:32.525Z,47.77
2018-05-26T00:24:07.252Z,48.10
2018-05-26T00:26:41.077Z,48.77
2018-05-26T00:29:14.833Z,48.03
2018-05-26T00:31:48.649Z,47.80
2018-05-26T00:34:22.601Z,46.63
2018-05-26T00:36:56.661Z,46.97
2018-05-26T00:39:32.054Z,45.17
2018-05-26T00:42:07.161Z,41.43
2018-05-26T00:44:42.330Z,43.13
2018-05-26T00:47:19.003Z,41.00
2018-05-26T00:49:54.517Z,40.87
2018-05-26T00:52:28.529Z,39.87
2018-05-26T00:55:03.291Z,40.73
2018-05-26T00:57:37.459Z,41.33
2018-05-26T01:00:11.619Z,41.43
2018-05-26T01:02:45.940Z,41.80
2018-05-26T01:05:24.042Z,39.97
2018-05-26T01:07:58.320Z,39.47
2018-05-26T01:10:33.913Z,42.50
2018-05-26T01:13:08.130Z,40.90
2018-05-26T01:15:42.644Z,41.53
2018-05-26T01:18:17.034Z,41.03
2018-05-26T01:20:51.278Z,40.67
2018-05-26T01:23:25.705Z,42.83
2018-05-26T01:28:40.280Z,40.90
2018-05-26T01:31:14.701Z,40.47
2018-05-26T01:33:48.818Z,40.53
2018-05-26T01:36:24.160Z,41.00
2018-05-26T01:38:59.224Z,40.50
2018-05-26T01:41:33.982Z,40.43
2018-05-26T01:44:08.341Z,42.47
2018-05-26T01:46:43.034Z,39.80
2018-05-26T01:49:17.797Z,42.00
2018-05-26T01:51:52.217Z,40.83
2018-05-26T01:54:26.334Z,41.93
2018-05-26T01:57:01.236Z,43.10
2018-05-26T01:59:36.298Z,42.00
2018-05-26T02:02:10.270Z,42.10
2018-05-26T02:04:44.526Z,42.80
2018-05-26T02:07:19.560Z,41.73
2018-05-26T02:09:53.571Z,42.50
2018-05-26T02:12:27.420Z,44.33
2018-05-26T02:15:01.611Z,42.47
2018-05-26T02:17:36.629Z,44.27
2018-05-26T02:20:10.918Z,43.57
2018-05-26T02:22:44.958Z,45.00
2018-05-26T02:25:19.694Z,44.27
2018-05-26T02:27:53.941Z,44.27
2018-05-26T02:30:29.040Z,45.83
2018-05-26T02:33:02.949Z,45.80
2018-05-26T02:35:36.961Z,46.43
2018-05-26T02:38:11.689Z,47.47
2018-05-26T02:40:45.544Z,47.10
2018-05-26T02:43:19.782Z,47.10
2018-05-26T02:45:53.822Z,47.73
2018-05-26T02:48:28.040Z,48.20
2018-05-26T02:51:02.973Z,47.37
2018-05-26T02:53:37.394Z,49.00
2018-05-26T02:56:12.632Z,43.77
2018-05-26T02:58:46.643Z,47.87
2018-05-26T03:01:21.371Z,45.87
2018-05-26T03:03:55.203Z,45.87
2018-05-26T03:06:34.845Z,45.53
2018-05-26T03:09:15.491Z,46.17
2018-05-26T03:11:55.497Z,42.73
2018-05-26T03:14:35.363Z,47.17
2018-05-26T03:17:12.574Z,45.00
2018-05-26T03:19:46.793Z,46.37
2018-05-26T03:22:21.723Z,45.67
2018-05-26T03:24:56.042Z,46.57
2018-05-26T03:27:30.258Z,45.40
2018-05-26T03:30:05.088Z,45.87
2018-05-26T03:32:39.282Z,48.37
2018-05-26T03:35:14.186Z,45.70
2018-05-26T03:37:48.655Z,46.27
2018-05-26T03:40:22.670Z,46.40
2018-05-26T03:42:57.185Z,46.50
2018-05-26T03:45:31.502Z,47.33
2018-05-26T03:48:06.710Z,45.73
2018-05-26T03:50:42.033Z,48.13
2018-05-26T03:53:17.236Z,47.17
2018-05-26T03:56:03.436Z,46.07
2018-05-26T03:58:49.521Z,46.23
2018-05-26T04:01:23.901Z,47.53
2018-05-26T04:03:58.337Z,44.93
2018-05-26T04:06:32.402Z,44.77
2018-05-26T04:09:06.540Z,44.53
2018-05-26T04:11:40.708Z,46.43
2018-05-26T04:14:14.916Z,44.63
2018-05-26T04:16:50.365Z,44.67
2018-05-26T04:19:24.751Z,45.30
2018-05-26T04:21:58.761Z,44.37
2018-05-26T04:24:33.633Z,42.63
2018-05-26T04:27:08.149Z,42.57
2018-05-26T04:29:43.246Z,43.63
2018-05-26T04:32:18.320Z,41.60
2018-05-26T04:34:52.493Z,43.27
2018-05-26T04:37:26.649Z,42.20
2018-05-26T04:40:01.177Z,43.30
2018-05-26T04:42:35.246Z,40.03
2018-05-26T04:45:09.299Z,40.77
2018-05-26T04:47:43.461Z,38.97
2018-05-26T04:50:19.306Z,38.63
2018-05-26T04:52:53.436Z,38.80
2018-05-26T04:55:27.539Z,36.80
2018-05-26T04:58:02.263Z,37.37
2018-05-26T05:00:37.505Z,37.20
2018-05-26T05:03:15.365Z,37.10
2018-05-26T05:06:15.625Z,37.70
2018-05-26T05:08:49.795Z,36.60
2018-05-26T05:11:25.020Z,37.13
2018-05-26T05:13:59.368Z,35.17
2018-05-26T05:16:33.682Z,36.70
2018-05-26T05:19:08.002Z,36.17
2018-05-26T05:21:42.216Z,35.57
2018-05-26T05:24:17.353Z,37.73
2018-05-26T05:26:52.495Z,36.47
2018-05-26T05:29:28.113Z,36.70
2018-05-26T05:32:02.046Z,35.53
2018-05-26T05:34:36.158Z,35.00
2018-05-26T05:37:10.483Z,35.13
2018-05-26T05:39:44.421Z,37.27
2018-05-26T05:42:19.277Z,35.97
2018-05-26T05:44:54.155Z,34.43
2018-05-26T05:47:28.217Z,34.83
2018-05-26T05:50:02.183Z,32.23
2018-05-26T05:52:36.117Z,32.73
2018-05-26T05:55:11.037Z,30.90
2018-05-26T05:57:44.932Z,32.50
2018-05-26T06:00:18.838Z,32.83
2018-05-26T06:02:52.793Z,30.67
2018-05-26T06:05:27.568Z,32.83
2018-05-26T06:08:01.740Z,30.40
2018-05-26T06:10:35.561Z,30.87
2018-05-26T06:13:09.403Z,29.63
2018-05-26T06:15:43.957Z,31.00
2018-05-26T06:18:17.886Z,30.33
2018-05-26T06:20:52.444Z,29.23
2018-05-26T06:23:26.316Z,31.57
2018-05-26T06:26:00.568Z,29.00
2018-05-26T06:28:34.697Z,30.63
2018-05-26T06:31:08.730Z,30.13
2018-05-26T06:33:42.569Z,28.50
2018-05-26T06:36:17.861Z,27.53
2018-05-26T06:38:51.942Z,27.03
2018-05-26T06:41:25.763Z,27.87
2018-05-26T06:43:59.588Z,28.73
2018-05-26T06:46:33.532Z,27.20
2018-05-26T06:49:08.413Z,26.97
2018-05-26T06:51:43.113Z,26.30
2018-05-26T06:54:17.127Z,27.43
2018-05-26T06:56:51.064Z,27.87
2018-05-26T06:59:24.973Z,27.30
2018-05-26T07:01:59.574Z,26.07
2018-05-26T07:04:34.198Z,26.27
2018-05-26T07:07:08.221Z,25.83
2018-05-26T07:09:42.146Z,25.47
2018-05-26T07:12:16.053Z,25.03
2018-05-26T07:14:49.909Z,25.30
2018-05-26T07:17:23.713Z,23.70
2018-05-26T07:19:57.582Z,25.27
2018-05-26T07:22:31.360Z,25.30
2018-05-26T07:25:06.222Z,23.23
2018-05-26T07:27:40.178Z,23.37
2018-05-26T07:30:14.112Z,24.43
2018-05-26T07:32:47.896Z,24.23
2018-05-26T07:35:21.686Z,23.53
2018-05-26T07:37:55.591Z,23.57
2018-05-26T07:40:29.569Z,22.63
2018-05-26T07:43:03.581Z,23.73
2018-05-26T07:45:37.378Z,19.47
2018-05-26T07:48:12.103Z,21.57
2018-05-26T07:50:46.918Z,21.50
2018-05-26T07:53:20.827Z,23.23
2018-05-26T07:55:54.703Z,18.60
2018-05-26T07:58:29.231Z,22.20
2018-05-26T08:01:03.120Z,21.83
2018-05-26T08:03:37.047Z,20.60
2018-05-26T08:06:12.242Z,22.00
2018-05-26T08:08:46.209Z,19.67
2018-05-26T08:11:20.815Z,17.00
2018-05-26T08:13:54.741Z,20.50
2018-05-26T08:16:28.575Z,17.47
2018-05-26T08:19:03.190Z,19.33
2018-05-26T08:21:36.986Z,18.17
2018-05-26T08:24:10.893Z,19.03
2018-05-26T08:26:45.516Z,17.77
2018-05-26T08:29:19.428Z,17.30
2018-05-26T08:31:53.365Z,16.83
2018-05-26T08:34:27.483Z,17.70
2018-05-26T08:37:01.353Z,18.93
2018-05-26T08:39:35.987Z,16.33
2018-05-26T08:42:09.797Z,19.10
2018-05-26T08:44:44.496Z,13.83
2018-05-26T08:47:18.397Z,10.27
2018-05-26T08:49:52.204Z,15.67
2018-05-26T08:52:26.037Z,16.63
2018-05-26T08:55:00.699Z,16.90
2018-05-26T08:57:34.428Z,12.80
2018-05-26T09:00:09.677Z,9.37
2018-05-26T09:02:43.477Z,12.17
2018-05-26T09:05:17.179Z,15.60
2018-05-26T09:07:51.012Z,11.73
2018-05-26T09:10:25.624Z,15.13
2018-05-26T09:12:59.326Z,13.03
2018-05-26T09:15:33.024Z,9.57
2018-05-26T09:18:07.758Z,9.73
2018-05-26T09:20:41.543Z,12.10
2018-05-26T09:23:15.367Z,13.97
2018-05-26T09:25:50.041Z,13.13
2018-05-26T09:28:23.837Z,12.07
2018-05-26T09:30:57.661Z,8.53
2018-05-26T09:33:31.514Z,11.93
2018-05-26T09:36:05.284Z,8.97
2018-05-26T09:38:39.168Z,10.57
2018-05-26T09:41:12.944Z,11.77
2018-05-26T09:43:46.724Z,8.47
2018-05-26T09:46:20.559Z,11.73
2018-05-26T09:48:54.373Z,12.60
2018-05-26T09:51:28.138Z,8.30
2018-05-26T09:54:01.993Z,9.07
2018-05-26T09:56:35.737Z,10.50
2018-05-26T09:59:09.537Z,11.13
2018-05-26T10:01:43.350Z,11.83
2018-05-26T10:04:16.998Z,8.07
2018-05-26T10:06:50.984Z,9.13
2018-05-26T10:09:24.651Z,10.30
2018-05-26T10:11:58.405Z,8.17
2018-05-26T10:14:32.133Z,7.53
2018-05-26T10:17:06.876Z,8.80
2018-05-26T10:19:40.763Z,9.10
2018-05-26T10:22:15.325Z,12.03
2018-05-26T10:24:49.197Z,10.67
2018-05-26T10:27:23.791Z,9.43
2018-05-26T10:29:57.559Z,9.73
2018-05-26T10:32:31.410Z,9.93
2018-05-26T10:35:05.122Z,9.67
2018-05-26T10:37:39.077Z,8.33
2018-05-26T10:40:14.283Z,10.17
2018-05-26T10:42:48.933Z,5.83
2018-05-26T10:45:34.653Z,8.50
2018-05-26T10:48:08.739Z,8.33
2018-05-26T10:50:42.602Z,7.47
2018-05-26T10:53:17.644Z,5.87
2018-05-26T10:55:51.594Z,5.57
2018-05-26T10:58:25.497Z,8.37
2018-05-26T11:01:00.806Z,5.70
2018-05-26T11:03:34.715Z,5.97
2018-05-26T11:06:08.535Z,6.93
2018-05-26T11:08:43.147Z,6.07
2018-05-26T11:11:18.046Z,7.37
2018-05-26T11:13:51.909Z,7.23
2018-05-26T11:16:25.692Z,9.20
2018-05-26T11:18:59.473Z,5.37
2018-05-26T11:21:33.221Z,6.37
2018-05-26T11:24:07.338Z,5.07
2018-05-26T11:26:40.910Z,5.33
2018-05-26T11:29:15.434Z,6.73
2018-05-26T11:31:49.194Z,6.17
2018-05-26T11:34:23.059Z,7.77
2018-05-26T11:36:57.500Z,5.37
2018-05-26T11:39:31.170Z,5.17
2018-05-26T11:42:04.866Z,4.23
2018-05-26T11:44:38.593Z,4.20
2018-05-26T11:47:12.400Z,3.40
2018-05-26T11:49:47.000Z,3.40
2018-05-26T11:52:20.942Z,4.20
2018-05-26T11:54:55.298Z,3.57
2018-05-26T11:57:29.122Z,3.53
2018-05-26T12:00:02.866Z,3.40
2018-05-26T12:02:36.637Z,3.60
2018-05-26T12:05:10.367Z,3.57
2018-05-26T12:07:44.921Z,3.73
2018-05-26T12:10:18.739Z,4.33
2018-05-26T12:12:52.592Z,3.57
2018-05-26T12:15:26.949Z,4.10
2018-05-26T12:18:00.688Z,4.40
2018-05-26T12:20:35.298Z,3.70
2018-05-26T12:23:08.960Z,3.80
2018-05-26T12:25:42.721Z,3.43
2018-05-26T12:28:17.863Z,3.63
2018-05-26T12:30:51.599Z,5.03
2018-05-26T12:33:25.247Z,3.30
2018-05-26T12:35:59.072Z,3.03
2018-05-26T12:38:33.664Z,3.40
2018-05-26T12:41:07.411Z,3.80
2018-05-26T12:43:41.099Z,3.60
2018-05-26T12:46:14.922Z,3.17
2018-05-26T12:48:49.436Z,2.73
2018-05-26T12:51:23.229Z,3.30
2018-05-26T12:53:57.835Z,3.40
2018-05-26T12:56:31.937Z,3.40
2018-05-26T12:59:05.576Z,3.40
2018-05-26T13:01:39.418Z,3.80
2018-05-26T13:04:13.220Z,4.13
2018-05-26T13:06:47.793Z,4.20
2018-05-26T13:09:21.634Z,3.90
2018-05-26T13:11:55.362Z,3.60
2018-05-26T13:14:29.112Z,3.50
2018-05-26T13:17:03.728Z,4.43
2018-05-26T13:19:37.522Z,4.63
2018-05-26T13:22:11.240Z,4.30
2018-05-26T13:24:44.873Z,4.90
2018-05-26T13:27:18.654Z,4.80
2018-05-26T13:29:53.224Z,5.67
2018-05-26T13:32:27.038Z,4.33
2018-05-26T13:35:01.446Z,5.00
2018-05-26T13:37:35.266Z,4.93
2018-05-26T13:40:08.951Z,4.17
2018-05-26T13:42:42.792Z,4.17
2018-05-26T13:45:16.599Z,3.37
2018-05-26T13:47:51.201Z,4.50
2018-05-26T13:50:25.631Z,4.30
2018-05-26T13:52:59.370Z,3.97
2018-05-26T13:55:33.990Z,3.73
2018-05-26T13:58:08.369Z,3.70
2018-05-26T14:00:42.767Z,4.30
2018-05-26T14:03:16.598Z,3.90
2018-05-26T14:05:50.385Z,4.20
2018-05-26T14:08:24.165Z,3.90
2018-05-26T14:10:58.075Z,3.30
2018-05-26T14:13:31.872Z,4.57
2018-05-26T14:16:05.734Z,3.77
2018-05-26T14:18:39.553Z,3.70
2018-05-26T14:21:14.239Z,4.50
2018-05-26T14:23:47.993Z,4.30
2018-05-26T14:26:21.675Z,4.60
2018-05-26T14:28:55.540Z,4.87
2018-05-26T14:31:29.369Z,4.40
2018-05-26T14:34:03.163Z,4.03
2018-05-26T14:36:37.706Z,4.30
2018-05-26T14:39:11.388Z,4.37
2018-05-26T14:41:45.214Z,4.37
2018-05-26T14:44:19.035Z,4.13
2018-05-26T14:46:53.605Z,4.23
2018-05-26T14:49:27.293Z,4.40
2018-05-26T14:52:01.145Z,5.17
2018-05-26T14:54:34.796Z,5.13
2018-05-26T14:57:08.631Z,6.20
2018-05-26T14:59:42.442Z,6.33
2018-05-26T15:02:16.263Z,6.30
2018-05-26T15:04:50.062Z,4.90
2018-05-26T15:07:24.015Z,4.70
2018-05-26T15:09:58.464Z,4.93
2018-05-26T15:12:32.203Z,4.93
2018-05-26T15:15:05.943Z,5.47
2018-05-26T15:17:39.707Z,4.70
2018-05-26T15:20:14.307Z,5.73
2018-05-26T15:22:48.007Z,5.00
2018-05-26T15:25:21.810Z,4.73
2018-05-26T15:27:55.621Z,5.27
2018-05-26T15:30:29.435Z,8.83
2018-05-26T15:33:03.261Z,7.10
2018-05-26T15:35:37.062Z,4.93
2018-05-26T15:38:11.554Z,5.13
2018-05-26T15:40:45.237Z,5.50
2018-05-26T15:43:19.772Z,4.97
2018-05-26T15:45:54.350Z,5.10
2018-05-26T15:48:28.092Z,4.20
2018-05-26T15:51:01.934Z,4.23
2018-05-26T15:53:35.834Z,6.23
2018-05-26T15:56:09.638Z,4.90
2018-05-26T15:58:43.459Z,4.60
2018-05-26T16:01:18.116Z,7.10
2018-05-26T16:03:51.835Z,5.30
2018-05-26T16:06:25.670Z,5.00
2018-05-26T16:09:00.184Z,4.57
2018-05-26T16:11:34.647Z,4.63
2018-05-26T16:14:08.337Z,5.63
2018-05-26T16:16:42.263Z,5.17
2018-05-26T16:19:16.811Z,12.13
2018-05-26T16:21:51.379Z,4.63
2018-05-26T16:24:25.200Z,5.00
2018-05-26T16:26:59.050Z,5.77
2018-05-26T16:29:32.988Z,4.50
2018-05-26T16:32:06.602Z,4.20
2018-05-26T16:34:40.443Z,4.83
2018-05-26T16:37:14.338Z,4.63
2018-05-26T16:39:48.661Z,5.30
2018-05-26T16:42:22.518Z,5.20
2018-05-26T16:44:56.302Z,5.10
2018-05-26T16:47:30.155Z,4.73
2018-05-26T16:50:03.978Z,5.00
2018-05-26T16:52:37.671Z,4.67
2018-05-26T16:55:11.475Z,5.40
2018-05-26T16:57:45.125Z,5.43
2018-05-26T17:00:18.926Z,7.10
2018-05-26T17:02:53.623Z,6.40
2018-05-26T17:05:27.455Z,13.43
2018-05-26T17:08:01.265Z,9.13
2018-05-26T17:10:35.116Z,6.63
2018-05-26T17:13:09.015Z,6.87
2018-05-26T17:15:42.807Z,8.07
2018-05-26T17:18:16.563Z,8.07
2018-05-26T17:20:50.378Z,5.27
2018-05-26T17:23:24.126Z,6.23
2018-05-26T17:25:58.739Z,6.30
2018-05-26T17:28:32.532Z,6.80
2018-05-26T17:31:06.352Z,7.70
2018-05-26T17:33:40.092Z,6.60
2018-05-26T17:36:13.827Z,6.57
2018-05-26T17:38:47.536Z,6.70
2018-05-26T17:41:21.395Z,7.47
2018-05-26T17:43:55.193Z,7.90
2018-05-26T17:46:29.029Z,5.73
2018-05-26T17:49:02.859Z,4.87
2018-05-26T17:51:36.669Z,7.27
2018-05-26T17:54:10.621Z,4.80
2018-05-26T17:56:44.350Z,4.97
2018-05-26T17:59:18.068Z,6.33
2018-05-26T18:01:51.893Z,6.73
2018-05-26T18:04:26.303Z,5.67
2018-05-26T18:07:00.002Z,6.10
2018-05-26T18:09:33.864Z,5.27
2018-05-26T18:12:07.697Z,7.37
2018-05-26T18:14:41.524Z,6.13
2018-05-26T18:17:15.318Z,5.40
2018-05-26T18:19:49.119Z,5.47
2018-05-26T18:22:22.961Z,3.93
2018-05-26T18:24:57.545Z,4.93
2018-05-26T18:27:31.282Z,5.30
2018-05-26T18:30:04.965Z,5.17
2018-05-26T18:32:39.561Z,4.93
2018-05-26T18:35:13.273Z,4.50
2018-05-26T18:37:47.084Z,5.00
2018-05-26T18:40:20.912Z,4.70
2018-05-26T18:42:54.694Z,5.13
2018-05-26T18:45:28.538Z,8.37
2018-05-26T18:48:03.176Z,6.27
2018-05-26T18:50:37.068Z,5.30
2018-05-26T18:53:10.778Z,5.70
2018-05-26T18:55:44.798Z,4.87
2018-05-26T18:58:18.545Z,5.53
2018-05-26T19:00:52.388Z,7.77
2018-05-26T19:03:26.349Z,5.70
2018-05-26T19:06:00.286Z,5.30
2018-05-26T19:08:34.180Z,6.77
2018-05-26T19:11:07.999Z,5.47
2018-05-26T19:13:41.859Z,5.53
2018-05-26T19:16:15.800Z,4.87
2018-05-26T19:18:49.594Z,5.70
2018-05-26T19:21:23.313Z,5.33
2018-05-26T19:23:57.279Z,5.30
2018-05-26T19:26:31.873Z,5.10
2018-05-26T19:29:06.347Z,5.97
2018-05-26T19:31:40.456Z,5.00
2018-05-26T19:34:14.350Z,5.23
2018-05-26T19:36:48.275Z,5.23
2018-05-26T19:39:22.800Z,5.10
2018-05-26T19:41:56.492Z,5.63
2018-05-26T19:44:30.403Z,4.87
2018-05-26T19:47:05.120Z,4.77
2018-05-26T19:49:40.252Z,4.80
2018-05-26T19:52:15.298Z,4.33
2018-05-26T19:54:48.934Z,4.70
2018-05-26T19:57:22.738Z,4.77
2018-05-26T19:59:57.355Z,5.40
2018-05-26T20:02:31.355Z,4.77
2018-05-26T20:05:05.173Z,5.00
2018-05-26T20:07:38.913Z,4.53
2018-05-26T20:10:12.645Z,5.10
2018-05-26T20:12:47.282Z,4.37
2018-05-26T20:15:21.619Z,4.70
2018-05-26T20:17:55.477Z,4.20
2018-05-26T20:20:29.592Z,4.00
2018-05-26T20:23:03.655Z,5.80
2018-05-26T20:25:37.413Z,5.83
2018-05-26T20:28:11.368Z,5.53
2018-05-26T20:30:45.252Z,4.73
2018-05-26T20:33:19.972Z,4.30
2018-05-26T20:35:53.804Z,4.57
2018-05-26T20:38:27.613Z,4.73
2018-05-26T20:41:03.010Z,4.67
2018-05-26T20:43:36.752Z,4.77
2018-05-26T20:46:10.599Z,4.37
2018-05-26T20:48:44.291Z,5.00
2018-05-26T20:51:18.169Z,5.23
2018-05-26T20:53:51.850Z,4.97
2018-05-26T20:56:26.532Z,5.23
2018-05-26T20:59:00.440Z,4.93
2018-05-26T21:01:34.915Z,5.70
2018-05-26T21:04:08.705Z,5.40
2018-05-26T21:06:42.499Z,5.83
2018-05-26T21:09:16.312Z,5.23
2018-05-26T21:11:50.981Z,5.37
2018-05-26T21:14:24.789Z,6.23
2018-05-26T21:16:58.508Z,6.13
2018-05-26T21:19:32.322Z,5.40
2018-05-26T21:22:05.992Z,5.20
2018-05-26T21:24:39.831Z,5.70
2018-05-26T21:27:13.573Z,5.70
2018-05-26T21:29:47.388Z,5.20
2018-05-26T21:32:21.186Z,5.03
2018-05-26T21:34:54.994Z,5.63
2018-05-26T21:37:28.830Z,5.23
2018-05-26T21:40:02.732Z,5.37
2018-05-26T21:42:37.363Z,5.47
2018-05-26T21:45:11.091Z,5.53
2018-05-26T21:47:44.838Z,5.40
2018-05-26T21:50:18.559Z,5.30
2018-05-26T21:52:52.386Z,5.47
2018-05-26T21:55:26.450Z,6.17
2018-05-26T21:58:00.382Z,5.43
2018-05-26T22:00:34.074Z,5.33
2018-05-26T22:03:07.972Z,5.20
2018-05-26T22:05:41.762Z,5.60
2018-05-26T22:08:15.424Z,6.50
2018-05-26T22:10:49.208Z,5.73
2018-05-26T22:13:23.121Z,5.23
2018-05-26T22:15:57.733Z,5.60
2018-05-26T22:18:31.446Z,5.73
2018-05-26T22:21:05.582Z,5.37
2018-05-26T22:23:39.452Z,6.00
2018-05-26T22:26:13.439Z,5.53
2018-05-26T22:28:48.236Z,5.90
2018-05-26T22:31:22.020Z,5.37
2018-05-26T22:33:56.593Z,5.50
2018-05-26T22:36:30.230Z,5.80
2018-05-26T22:39:04.617Z,5.00
2018-05-26T22:41:38.519Z,4.93
2018-05-26T22:44:12.289Z,5.70
2018-05-26T22:46:46.117Z,5.33
2018-05-26T22:49:19.821Z,5.17
2018-05-26T22:51:54.522Z,4.90
2018-05-26T22:54:28.377Z,4.63
2018-05-26T22:57:02.333Z,5.20
2018-05-26T22:59:36.182Z,4.87
2018-05-26T23:02:10.123Z,5.47
2018-05-26T23:04:43.870Z,5.33
2018-05-26T23:07:18.467Z,5.47
2018-05-26T23:09:52.467Z,5.40
2018-05-26T23:12:26.475Z,4.80
2018-05-26T23:15:00.497Z,5.50
2018-05-26T23:17:34.451Z,5.70
2018-05-26T23:20:09.224Z,5.63
2018-05-26T23:22:43.121Z,5.77
2018-05-26T23:25:17.164Z,5.23
2018-05-26T23:27:51.199Z,5.20
2018-05-26T23:30:25.880Z,5.50
2018-05-26T23:32:59.679Z,5.03
2018-05-26T23:35:33.621Z,5.10
2018-05-26T23:38:07.349Z,5.47
2018-05-26T23:40:41.401Z,5.70
2018-05-26T23:43:16.089Z,5.63
2018-05-26T23:45:50.341Z,5.47
2018-05-26T23:48:24.362Z,5.73
2018-05-26T23:50:58.430Z,5.73
2018-05-26T23:53:32.237Z,5.90
2018-05-26T23:56:06.199Z,5.60
2018-05-26T23:58:40.088Z,5.67
